Time;durP1;ratioP1;P1;durP2;ratioP2;P2;SDS_P1;SDS_P2;PMS_P1;PMS_P2;Temp;Humidity;BMP_temperature;BMP_pressure;BME280_temperature;BME280_humidity;BME280_pressure;Samples;Min_cycle;Max_cycle;Signal;HPM_P1;HPM_P2
2022/11/30 00:00:42;;;;;;;5.55;4.00;;;;;;;;;;4607743;27;20094;-60
2022/11/30 00:02:55;;;;;;;4.70;4.15;;;;;;;;;;4606929;27;20092;-61
2022/11/30 00:05:06;;;;;;;5.50;4.47;;;;;;;;;;4605816;27;20019;-60
2022/11/30 00:07:16;;;;;;;6.32;4.40;;;;;;;;;;4607713;27;20035;-61
2022/11/30 00:09:26;;;;;;;5.78;4.55;;;;;;;;;;4606509;27;20496;-60
2022/11/30 00:11:37;;;;;;;5.78;4.22;;;;;;;;;;4609007;27;20117;-60
2022/11/30 00:13:47;;;;;;;5.10;4.15;;;;;;;;;;4610656;27;20135;-61
2022/11/30 00:16:00;;;;;;;5.25;4.32;;;;;;;;;;4606011;27;20492;-61
2022/11/30 00:18:11;;;;;;;5.65;4.00;;;;;;;;;;4607189;27;20502;-60
2022/11/30 00:20:21;;;;;;;5.45;3.95;;;;;;;;;;4605456;27;20073;-60
2022/11/30 00:22:31;;;;;;;5.60;4.38;;;;;;;;;;4606349;27;20035;-60
2022/11/30 00:24:42;;;;;;;5.40;4.15;;;;;;;;;;4606928;27;20036;-60
2022/11/30 00:26:52;;;;;;;6.20;4.45;;;;;;;;;;4606170;27;20041;-60
2022/11/30 00:29:02;;;;;;;5.85;4.20;;;;;;;;;;4613414;27;20035;-60
2022/11/30 00:31:14;;;;;;;5.30;4.18;;;;;;;;;;4608357;27;20039;-60
2022/11/30 00:33:24;;;;;;;5.90;4.20;;;;;;;;;;4608433;27;20578;-60
2022/11/30 00:35:34;;;;;;;6.75;4.28;;;;;;;;;;4610036;27;20020;-60
2022/11/30 00:37:44;;;;;;;5.70;4.25;;;;;;;;;;4607104;27;20039;-60
2022/11/30 00:39:55;;;;;;;4.65;4.10;;;;;;;;;;4606051;27;20035;-60
2022/11/30 00:42:05;;;;;;;5.88;4.40;;;;;;;;;;4606181;27;20024;-60
2022/11/30 00:44:16;;;;;;;5.78;4.30;;;;;;;;;;4606714;27;20431;-60
2022/11/30 00:46:26;;;;;;;5.72;4.45;;;;;;;;;;4607063;27;20390;-60
2022/11/30 00:48:37;;;;;;;5.13;4.00;;;;;;;;;;4606860;27;20049;-61
2022/11/30 00:50:48;;;;;;;5.20;4.18;;;;;;;;;;4608053;27;20039;-60
2022/11/30 00:52:58;;;;;;;5.70;4.32;;;;;;;;;;4608026;27;20483;-60
2022/11/30 00:55:09;;;;;;;6.35;4.30;;;;;;;;;;4608760;27;20039;-60
2022/11/30 00:57:19;;;;;;;7.32;4.80;;;;;;;;;;4607551;27;20036;-60
2022/11/30 00:59:29;;;;;;;6.55;4.75;;;;;;;;;;4607397;27;20031;-60
2022/11/30 01:01:39;;;;;;;7.15;4.72;;;;;;;;;;4606783;27;20047;-60
2022/11/30 01:03:50;;;;;;;5.72;4.70;;;;;;;;;;4606805;27;20562;-60
2022/11/30 01:06:04;;;;;;;5.82;4.72;;;;;;;;;;4606918;27;20062;-61
2022/11/30 01:08:14;;;;;;;6.38;4.60;;;;;;;;;;4606216;27;20074;-60
2022/11/30 01:10:24;;;;;;;5.43;4.50;;;;;;;;;;4604955;27;20627;-60
2022/11/30 01:12:35;;;;;;;7.07;4.88;;;;;;;;;;4607494;27;20047;-61
2022/11/30 01:14:45;;;;;;;5.93;4.50;;;;;;;;;;4606270;27;20051;-60
2022/11/30 01:16:55;;;;;;;5.70;4.30;;;;;;;;;;4605859;27;20032;-60
2022/11/30 01:19:06;;;;;;;5.68;4.47;;;;;;;;;;4605225;27;20055;-60
2022/11/30 01:21:17;;;;;;;5.38;4.40;;;;;;;;;;4608000;27;20135;-60
2022/11/30 01:23:27;;;;;;;5.03;4.50;;;;;;;;;;4606698;27;20130;-60
2022/11/30 01:25:38;;;;;;;6.72;4.63;;;;;;;;;;4606601;27;20062;-60
2022/11/30 01:27:49;;;;;;;6.13;4.65;;;;;;;;;;4606772;27;20027;-60
2022/11/30 01:29:59;;;;;;;5.20;4.18;;;;;;;;;;4608613;27;20043;-60
2022/11/30 01:32:09;;;;;;;5.70;4.68;;;;;;;;;;4606595;27;20043;-60
2022/11/30 01:34:20;;;;;;;6.18;4.50;;;;;;;;;;4607306;27;20035;-60
2022/11/30 01:36:31;;;;;;;5.38;4.18;;;;;;;;;;4606696;27;20092;-60
2022/11/30 01:38:42;;;;;;;4.97;4.18;;;;;;;;;;4606630;27;20093;-60
2022/11/30 01:40:53;;;;;;;5.22;4.20;;;;;;;;;;4603004;27;20039;-59
2022/11/30 01:43:08;;;;;;;5.20;4.47;;;;;;;;;;4605043;27;20039;-61
2022/11/30 01:45:18;;;;;;;5.10;4.32;;;;;;;;;;4607207;27;20039;-60
2022/11/30 01:47:30;;;;;;;6.07;4.68;;;;;;;;;;4614445;27;20031;-60
2022/11/30 01:49:44;;;;;;;5.93;4.82;;;;;;;;;;4607615;27;20043;-60
2022/11/30 01:52:01;;;;;;;5.30;4.43;;;;;;;;;;4605014;27;20038;-60
2022/11/30 01:54:13;;;;;;;6.50;4.95;;;;;;;;;;4606448;27;20047;-60
2022/11/30 01:56:23;;;;;;;5.63;4.63;;;;;;;;;;4605277;27;20041;-60
2022/11/30 01:58:35;;;;;;;5.03;4.40;;;;;;;;;;4611856;27;20487;-60
2022/11/30 02:00:46;;;;;;;4.88;4.32;;;;;;;;;;4605551;27;20808;-59
2022/11/30 02:03:01;;;;;;;4.97;4.45;;;;;;;;;;4606033;27;20039;-60
2022/11/30 02:05:12;;;;;;;5.18;4.68;;;;;;;;;;4605505;27;20581;-60
2022/11/30 02:07:22;;;;;;;5.20;4.20;;;;;;;;;;4605115;27;20043;-60
2022/11/30 02:09:41;;;;;;;6.05;4.60;;;;;;;;;;4605135;27;20038;-60
2022/11/30 02:11:52;;;;;;;5.18;4.32;;;;;;;;;;4606155;27;20586;-60
2022/11/30 02:14:08;;;;;;;5.05;4.40;;;;;;;;;;4605642;27;20047;-60
2022/11/30 02:16:18;;;;;;;5.00;4.28;;;;;;;;;;4607312;27;20027;-61
2022/11/30 02:18:32;;;;;;;5.82;4.40;;;;;;;;;;4605357;27;20487;-60
2022/11/30 02:20:57;;;;;;;5.13;4.28;;;;;;;;;;4604083;27;20035;-60
2022/11/30 02:23:08;;;;;;;5.18;4.10;;;;;;;;;;4608920;27;20040;-60
2022/11/30 02:25:27;;;;;;;5.68;4.70;;;;;;;;;;4610235;27;20076;-60
2022/11/30 02:28:00;;;;;;;5.82;4.78;;;;;;;;;;4609884;27;20097;-60
2022/11/30 02:30:15;;;;;;;5.68;4.80;;;;;;;;;;4607657;27;20083;-60
2022/11/30 02:32:34;;;;;;;5.38;4.55;;;;;;;;;;4617014;27;20038;-60
2022/11/30 02:34:45;;;;;;;5.70;4.80;;;;;;;;;;4608176;27;20041;-60
2022/11/30 02:36:57;;;;;;;5.85;4.82;;;;;;;;;;4609287;27;20032;-60
2022/11/30 02:39:08;;;;;;;6.18;4.90;;;;;;;;;;4608572;27;20643;-60
2022/11/30 02:41:19;;;;;;;5.07;4.30;;;;;;;;;;4609299;27;20574;-60
2022/11/30 02:43:29;;;;;;;5.50;4.45;;;;;;;;;;4610136;27;20118;-60
2022/11/30 02:46:00;;;;;;;5.30;4.43;;;;;;;;;;4612049;27;20480;-60
2022/11/30 02:48:13;;;;;;;5.22;4.28;;;;;;;;;;4609139;27;20188;-60
2022/11/30 02:50:33;;;;;;;5.40;4.40;;;;;;;;;;4607057;27;20085;-60
2022/11/30 02:52:44;;;;;;;5.97;4.72;;;;;;;;;;4607796;27;20175;-60
2022/11/30 02:54:58;;;;;;;5.30;4.28;;;;;;;;;;4608591;27;20133;-60
2022/11/30 02:57:09;;;;;;;5.50;4.40;;;;;;;;;;4606781;27;20035;-60
2022/11/30 02:59:20;;;;;;;5.25;4.15;;;;;;;;;;4607750;27;20043;-60
2022/11/30 03:01:30;;;;;;;5.82;4.30;;;;;;;;;;4608831;27;20019;-60
2022/11/30 03:03:40;;;;;;;5.63;3.97;;;;;;;;;;4607195;27;20047;-60
2022/11/30 03:05:51;;;;;;;5.82;4.50;;;;;;;;;;4609223;27;20476;-60
2022/11/30 03:08:01;;;;;;;5.00;3.85;;;;;;;;;;4610269;27;20131;-60
2022/11/30 03:10:11;;;;;;;4.53;3.60;;;;;;;;;;4609482;27;20359;-60
2022/11/30 03:12:22;;;;;;;4.60;3.70;;;;;;;;;;4607408;27;20124;-60
2022/11/30 03:14:32;;;;;;;4.63;3.65;;;;;;;;;;4606005;27;20089;-60
2022/11/30 03:16:43;;;;;;;4.53;3.60;;;;;;;;;;4607815;27;20556;-60
2022/11/30 03:18:53;;;;;;;5.28;3.80;;;;;;;;;;4607468;27;20051;-60
2022/11/30 03:21:05;;;;;;;5.90;4.05;;;;;;;;;;4608684;27;20043;-60
2022/11/30 03:23:16;;;;;;;5.00;4.10;;;;;;;;;;4607413;27;20027;-60
2022/11/30 03:25:26;;;;;;;5.50;4.10;;;;;;;;;;4607430;27;20101;-60
2022/11/30 03:27:37;;;;;;;4.18;3.55;;;;;;;;;;4607181;27;20597;-60
2022/11/30 03:29:47;;;;;;;4.82;3.72;;;;;;;;;;4607345;27;20047;-60
2022/11/30 03:31:57;;;;;;;5.30;3.90;;;;;;;;;;4609413;27;20027;-60
2022/11/30 03:34:07;;;;;;;4.78;3.90;;;;;;;;;;4607860;27;20035;-60
2022/11/30 03:36:18;;;;;;;4.97;3.75;;;;;;;;;;4609651;27;20045;-60
2022/11/30 03:38:28;;;;;;;4.85;3.72;;;;;;;;;;4606462;27;20510;-60
2022/11/30 03:40:38;;;;;;;4.90;3.83;;;;;;;;;;4608314;27;20024;-60
2022/11/30 03:42:49;;;;;;;4.70;4.00;;;;;;;;;;4608868;27;20085;-60
2022/11/30 03:44:59;;;;;;;4.65;3.90;;;;;;;;;;4609491;27;20508;-60
2022/11/30 03:47:09;;;;;;;6.07;4.05;;;;;;;;;;4607635;27;20454;-61
2022/11/30 03:49:19;;;;;;;4.88;3.90;;;;;;;;;;4607794;27;20187;-60
2022/11/30 03:51:30;;;;;;;4.50;3.80;;;;;;;;;;4607543;27;20062;-60
2022/11/30 03:53:40;;;;;;;5.97;4.70;;;;;;;;;;4609484;27;20046;-60
2022/11/30 03:55:52;;;;;;;5.00;3.78;;;;;;;;;;4607400;27;20037;-60
2022/11/30 03:58:02;;;;;;;4.90;4.05;;;;;;;;;;4607860;27;20573;-60
2022/11/30 04:00:13;;;;;;;5.40;3.97;;;;;;;;;;4614643;27;20058;-60
2022/11/30 04:02:23;;;;;;;5.57;4.10;;;;;;;;;;4606502;27;20042;-60
2022/11/30 04:04:33;;;;;;;5.03;3.80;;;;;;;;;;4608430;27;20027;-61
2022/11/30 04:06:44;;;;;;;4.85;3.80;;;;;;;;;;4609216;27;20118;-61
2022/11/30 04:08:54;;;;;;;4.80;3.70;;;;;;;;;;4608777;27;20491;-62
2022/11/30 04:11:05;;;;;;;5.35;4.00;;;;;;;;;;4610177;27;20059;-61
2022/11/30 04:13:15;;;;;;;4.90;3.53;;;;;;;;;;4607429;27;20575;-61
2022/11/30 04:15:25;;;;;;;4.72;3.70;;;;;;;;;;4607985;27;20075;-63
2022/11/30 04:17:35;;;;;;;4.95;3.97;;;;;;;;;;4609509;27;20031;-61
2022/11/30 04:19:46;;;;;;;5.18;4.03;;;;;;;;;;4613663;27;20425;-60
2022/11/30 04:21:56;;;;;;;5.20;3.88;;;;;;;;;;4607509;27;20049;-61
2022/11/30 04:24:07;;;;;;;5.00;3.83;;;;;;;;;;4605781;27;20039;-60
2022/11/30 04:26:17;;;;;;;5.18;3.90;;;;;;;;;;4605539;27;20043;-60
2022/11/30 04:28:27;;;;;;;5.07;3.90;;;;;;;;;;4607539;27;20076;-59
2022/11/30 04:30:37;;;;;;;4.75;3.88;;;;;;;;;;4607035;27;20179;-60
2022/11/30 04:32:48;;;;;;;5.07;4.00;;;;;;;;;;4611722;27;20066;-60
2022/11/30 04:34:58;;;;;;;5.10;4.10;;;;;;;;;;4608914;27;20091;-60
2022/11/30 04:37:08;;;;;;;5.38;4.10;;;;;;;;;;4608504;27;20606;-61
2022/11/30 04:39:19;;;;;;;4.47;3.67;;;;;;;;;;4612881;27;20047;-60
2022/11/30 04:41:29;;;;;;;4.85;3.90;;;;;;;;;;4605614;27;20028;-60
2022/11/30 04:43:39;;;;;;;5.40;4.13;;;;;;;;;;4605770;27;20680;-60
2022/11/30 04:45:50;;;;;;;4.80;3.90;;;;;;;;;;4613663;27;20027;-60
2022/11/30 04:48:00;;;;;;;5.28;3.72;;;;;;;;;;4606966;27;20045;-60
2022/11/30 04:50:11;;;;;;;5.28;3.55;;;;;;;;;;4606945;27;20079;-60
2022/11/30 04:52:21;;;;;;;4.15;3.50;;;;;;;;;;4607215;27;20316;-60
2022/11/30 04:54:31;;;;;;;4.28;3.25;;;;;;;;;;4605638;27;20074;-60
2022/11/30 04:56:41;;;;;;;5.68;4.05;;;;;;;;;;4607338;27;20046;-60
2022/11/30 04:58:52;;;;;;;4.93;3.90;;;;;;;;;;4607007;27;20039;-63
2022/11/30 05:01:02;;;;;;;5.07;4.00;;;;;;;;;;4610351;27;20084;-61
2022/11/30 05:03:12;;;;;;;4.25;3.47;;;;;;;;;;4606821;27;20101;-60
2022/11/30 05:05:23;;;;;;;4.82;3.92;;;;;;;;;;4607286;27;20455;-60
2022/11/30 05:07:33;;;;;;;5.45;4.15;;;;;;;;;;4605961;27;20513;-60
2022/11/30 05:09:43;;;;;;;5.15;4.10;;;;;;;;;;4611957;27;20747;-60
2022/11/30 05:11:53;;;;;;;4.88;3.72;;;;;;;;;;4607193;27;20082;-60
2022/11/30 05:14:04;;;;;;;4.50;3.72;;;;;;;;;;4608217;27;20035;-60
2022/11/30 05:16:14;;;;;;;4.65;3.65;;;;;;;;;;4605685;27;20113;-61
2022/11/30 05:18:25;;;;;;;4.68;3.60;;;;;;;;;;4605738;27;20638;-60
2022/11/30 05:20:35;;;;;;;5.35;3.70;;;;;;;;;;4605570;27;20077;-60
2022/11/30 05:22:47;;;;;;;4.90;3.67;;;;;;;;;;4608699;27;20084;-60
2022/11/30 05:24:57;;;;;;;4.43;3.78;;;;;;;;;;4587148;27;20052;-60
2022/11/30 05:27:07;;;;;;;5.15;3.90;;;;;;;;;;4606505;27;20027;-60
2022/11/30 05:29:18;;;;;;;4.70;3.67;;;;;;;;;;4613489;27;20051;-61
2022/11/30 05:31:28;;;;;;;4.85;3.63;;;;;;;;;;4607492;27;20058;-61
2022/11/30 05:33:38;;;;;;;5.00;3.85;;;;;;;;;;4609028;27;20050;-60
2022/11/30 05:35:49;;;;;;;4.93;3.88;;;;;;;;;;4607096;27;20052;-60
2022/11/30 05:37:59;;;;;;;4.80;3.60;;;;;;;;;;4607027;27;20047;-60
2022/11/30 05:40:09;;;;;;;4.43;3.80;;;;;;;;;;4605167;27;20062;-60
2022/11/30 05:42:20;;;;;;;5.10;3.60;;;;;;;;;;4611949;27;20039;-60
2022/11/30 05:44:30;;;;;;;4.82;3.80;;;;;;;;;;4605340;27;20036;-60
2022/11/30 05:46:40;;;;;;;4.68;3.58;;;;;;;;;;4606550;27;20019;-60
2022/11/30 05:48:51;;;;;;;5.18;3.92;;;;;;;;;;4606163;27;20456;-61
2022/11/30 05:51:09;;;;;;;4.90;3.63;;;;;;;;;;4606204;27;20390;-60
2022/11/30 05:53:19;;;;;;;4.90;3.60;;;;;;;;;;4604764;27;20139;-60
2022/11/30 05:55:31;;;;;;;4.72;3.50;;;;;;;;;;4607334;27;20039;-60
2022/11/30 05:57:41;;;;;;;5.25;3.78;;;;;;;;;;4606480;27;20582;-60
2022/11/30 05:59:51;;;;;;;8.00;5.25;;;;;;;;;;4605119;27;20031;-60
2022/11/30 06:02:01;;;;;;;10.75;6.57;;;;;;;;;;4607020;27;20616;-60
2022/11/30 06:04:12;;;;;;;9.32;6.32;;;;;;;;;;4607415;27;20515;-60
2022/11/30 06:06:22;;;;;;;6.82;5.05;;;;;;;;;;4605321;27;20039;-60
2022/11/30 06:08:32;;;;;;;4.85;4.00;;;;;;;;;;4605897;27;20033;-60
2022/11/30 06:10:43;;;;;;;5.38;4.18;;;;;;;;;;4612025;27;20054;-60
2022/11/30 06:12:53;;;;;;;4.78;3.80;;;;;;;;;;4606978;27;20039;-61
2022/11/30 06:15:03;;;;;;;4.57;3.80;;;;;;;;;;4607255;27;20069;-61
2022/11/30 06:17:14;;;;;;;4.15;3.28;;;;;;;;;;4605436;27;20028;-60
2022/11/30 06:19:24;;;;;;;4.75;3.50;;;;;;;;;;4613563;27;20979;-60
2022/11/30 06:21:34;;;;;;;4.85;3.88;;;;;;;;;;4608182;27;20023;-60
2022/11/30 06:23:45;;;;;;;5.20;4.13;;;;;;;;;;4607824;27;20035;-60
2022/11/30 06:25:55;;;;;;;5.13;3.95;;;;;;;;;;4606004;27;20034;-60
2022/11/30 06:28:07;;;;;;;4.55;3.80;;;;;;;;;;4613448;27;20091;-60
2022/11/30 06:30:18;;;;;;;5.15;4.05;;;;;;;;;;4605632;27;20044;-60
2022/11/30 06:32:28;;;;;;;4.65;3.65;;;;;;;;;;4606905;27;20027;-60
2022/11/30 06:34:38;;;;;;;5.13;4.10;;;;;;;;;;4605615;27;20035;-60
2022/11/30 06:36:49;;;;;;;4.90;4.00;;;;;;;;;;4612595;27;20035;-60
2022/11/30 06:38:59;;;;;;;4.93;3.90;;;;;;;;;;4607228;27;20085;-60
2022/11/30 06:41:11;;;;;;;4.45;3.60;;;;;;;;;;4604287;27;20472;-60
2022/11/30 06:43:21;;;;;;;5.60;4.30;;;;;;;;;;4604595;27;20045;-60
2022/11/30 06:45:31;;;;;;;5.18;4.05;;;;;;;;;;4606296;27;20498;-60
2022/11/30 06:47:42;;;;;;;5.40;4.28;;;;;;;;;;4603333;27;20351;-60
2022/11/30 06:49:52;;;;;;;5.68;4.03;;;;;;;;;;4606663;27;20553;-60
2022/11/30 06:52:03;;;;;;;5.35;4.10;;;;;;;;;;4608438;27;20123;-60
2022/11/30 06:54:13;;;;;;;5.88;4.18;;;;;;;;;;4606354;27;20039;-60
2022/11/30 06:56:23;;;;;;;5.50;4.30;;;;;;;;;;4605669;27;20039;-60
2022/11/30 06:58:34;;;;;;;5.35;4.00;;;;;;;;;;4604742;27;20160;-60
2022/11/30 07:00:45;;;;;;;5.47;4.40;;;;;;;;;;4605433;27;20131;-60
2022/11/30 07:02:55;;;;;;;5.55;4.45;;;;;;;;;;4602818;27;20684;-60
2022/11/30 07:05:05;;;;;;;5.88;4.35;;;;;;;;;;4610292;27;20046;-60
2022/11/30 07:07:16;;;;;;;5.55;4.28;;;;;;;;;;4606694;27;20043;-60
2022/11/30 07:09:26;;;;;;;5.80;4.20;;;;;;;;;;4604332;27;20043;-60
2022/11/30 07:11:36;;;;;;;5.78;4.10;;;;;;;;;;4605481;27;20049;-60
2022/11/30 07:13:47;;;;;;;4.90;4.05;;;;;;;;;;4606953;27;20051;-60
2022/11/30 07:15:57;;;;;;;7.25;6.40;;;;;;;;;;4607954;27;20031;-60
2022/11/30 07:18:08;;;;;;;5.05;4.38;;;;;;;;;;4608150;27;20050;-60
2022/11/30 07:20:18;;;;;;;5.40;4.00;;;;;;;;;;4607891;27;20039;-60
2022/11/30 07:22:28;;;;;;;7.25;5.50;;;;;;;;;;4606289;27;20043;-60
2022/11/30 07:27:08;;;;;;;1.52;0.80;;;;;;;;;;4608214;27;20050;-59
2022/11/30 07:29:19;;;;;;;0.93;0.80;;;;;;;;;;4606412;27;20185;-60
2022/11/30 07:31:30;;;;;;;4.75;3.88;;;;;;;;;;4608976;27;20043;-60
2022/11/30 07:33:40;;;;;;;5.75;4.30;;;;;;;;;;4608285;27;20031;-60
2022/11/30 07:35:54;;;;;;;5.90;4.10;;;;;;;;;;4608692;27;20044;-60
2022/11/30 07:38:04;;;;;;;5.25;3.75;;;;;;;;;;4607697;27;20083;-60
2022/11/30 07:40:14;;;;;;;5.00;3.97;;;;;;;;;;4608972;27;20046;-60
2022/11/30 07:42:25;;;;;;;5.07;4.13;;;;;;;;;;4607893;27;20711;-62
2022/11/30 07:44:36;;;;;;;4.88;4.20;;;;;;;;;;4608387;27;20710;-61
2022/11/30 07:46:46;;;;;;;5.75;5.07;;;;;;;;;;4609312;27;20154;-61
2022/11/30 07:48:56;;;;;;;6.80;5.50;;;;;;;;;;4610892;27;20034;-61
2022/11/30 07:51:10;;;;;;;1.38;0.63;;;;;;;;;;4607431;27;20019;-61
2022/11/30 07:53:21;;;;;;;6.18;4.68;;;;;;;;;;4607199;27;20043;-59
2022/11/30 07:55:31;;;;;;;7.25;5.75;;;;;;;;;;4606836;27;20038;-62
2022/11/30 07:57:42;;;;;;;5.47;4.18;;;;;;;;;;4607768;27;20035;-58
2022/11/30 07:59:52;;;;;;;5.25;4.05;;;;;;;;;;4607136;27;20590;-59
2022/11/30 08:02:02;;;;;;;5.28;4.25;;;;;;;;;;4612209;27;20427;-59
2022/11/30 08:04:13;;;;;;;6.75;4.93;;;;;;;;;;4608303;27;20074;-60
2022/11/30 08:06:25;;;;;;;6.00;4.38;;;;;;;;;;4607452;27;20402;-60
2022/11/30 08:08:37;;;;;;;5.40;4.18;;;;;;;;;;4607975;27;20042;-60
2022/11/30 08:10:47;;;;;;;4.82;3.75;;;;;;;;;;4608742;27;20076;-60
2022/11/30 08:12:58;;;;;;;6.13;4.28;;;;;;;;;;4606621;27;20049;-60
2022/11/30 08:15:08;;;;;;;6.78;5.45;;;;;;;;;;4606740;27;20046;-60
2022/11/30 08:17:18;;;;;;;6.38;4.88;;;;;;;;;;4607179;27;20067;-60
2022/11/30 08:19:29;;;;;;;0.80;0.80;;;;;;;;;;4596690;27;20464;-60
2022/11/30 08:21:39;;;;;;;4.00;2.80;;;;;;;;;;4604378;27;20092;-60
2022/11/30 08:23:55;;;;;;;6.65;4.75;;;;;;;;;;4608235;27;20721;-61
2022/11/30 08:26:07;;;;;;;5.20;3.92;;;;;;;;;;4604943;27;20035;-60
2022/11/30 08:28:17;;;;;;;4.95;3.70;;;;;;;;;;4609137;27;20616;-60
2022/11/30 08:30:27;;;;;;;5.50;4.30;;;;;;;;;;4592268;27;20131;-60
2022/11/30 08:32:38;;;;;;;5.75;4.68;;;;;;;;;;4608408;27;20094;-59
2022/11/30 08:34:48;;;;;;;0.95;0.82;;;;;;;;;;4612929;27;20031;-59
2022/11/30 08:36:58;;;;;;;7.40;5.82;;;;;;;;;;4607767;27;20059;-60
2022/11/30 08:39:10;;;;;;;1.27;0.85;;;;;;;;;;4607972;27;20031;-60
2022/11/30 08:41:21;;;;;;;5.55;4.05;;;;;;;;;;4609592;27;21294;-62
2022/11/30 08:43:31;;;;;;;0.70;0.70;;;;;;;;;;4608491;27;20098;-63
2022/11/30 08:45:42;;;;;;;0.73;0.55;;;;;;;;;;4607522;27;20039;-61
2022/11/30 08:47:53;;;;;;;1.55;0.90;;;;;;;;;;4603944;27;20039;-60
2022/11/30 08:50:03;;;;;;;0.80;0.80;;;;;;;;;;4607049;27;20046;-60
2022/11/30 08:52:14;;;;;;;0.90;0.80;;;;;;;;;;4606273;27;20517;-60
2022/11/30 08:54:26;;;;;;;0.90;0.80;;;;;;;;;;4606214;27;20463;-60
2022/11/30 08:56:36;;;;;;;0.73;0.70;;;;;;;;;;4610866;27;20031;-59
2022/11/30 08:58:46;;;;;;;0.80;0.75;;;;;;;;;;4607828;27;20040;-59
2022/11/30 09:01:07;;;;;;;0.80;0.70;;;;;;;;;;4606189;27;20503;-60
2022/11/30 09:03:17;;;;;;;0.80;0.70;;;;;;;;;;4605897;27;20035;-59
2022/11/30 09:05:27;;;;;;;0.80;0.70;;;;;;;;;;4605759;27;20046;-61
2022/11/30 09:07:38;;;;;;;1.67;0.63;;;;;;;;;;4606849;27;20110;-60
2022/11/30 09:09:48;;;;;;;1.60;0.75;;;;;;;;;;4604391;27;20039;-58
2022/11/30 09:11:58;;;;;;;0.85;0.80;;;;;;;;;;4606021;27;20032;-59
2022/11/30 09:14:09;;;;;;;0.80;0.70;;;;;;;;;;4611550;27;20034;-61
2022/11/30 09:16:20;;;;;;;0.80;0.80;;;;;;;;;;4607740;27;20047;-61
2022/11/30 09:18:31;;;;;;;0.73;0.73;;;;;;;;;;4606686;27;20031;-60
2022/11/30 09:20:41;;;;;;;0.75;0.75;;;;;;;;;;4610196;27;20380;-59
2022/11/30 09:22:52;;;;;;;1.73;0.80;;;;;;;;;;4606126;27;20100;-60
2022/11/30 09:25:02;;;;;;;0.65;0.65;;;;;;;;;;4607779;27;20526;-61
2022/11/30 09:27:12;;;;;;;1.33;0.70;;;;;;;;;;4606686;27;20547;-61
2022/11/30 09:29:23;;;;;;;0.70;0.60;;;;;;;;;;4607307;27;20491;-62
2022/11/30 09:31:33;;;;;;;1.42;0.75;;;;;;;;;;4606265;27;20107;-61
2022/11/30 09:33:43;;;;;;;1.45;0.70;;;;;;;;;;4607805;27;20050;-60
2022/11/30 09:35:55;;;;;;;1.30;0.90;;;;;;;;;;4609563;27;20027;-60
2022/11/30 09:38:05;;;;;;;1.10;0.80;;;;;;;;;;4604605;27;20035;-60
2022/11/30 09:40:16;;;;;;;0.70;0.70;;;;;;;;;;4602838;27;20502;-59
2022/11/30 09:42:26;;;;;;;1.75;0.90;;;;;;;;;;4606100;27;20035;-59
2022/11/30 09:44:37;;;;;;;1.63;0.80;;;;;;;;;;4605099;27;20080;-58
2022/11/30 09:46:53;;;;;;;2.47;0.88;;;;;;;;;;4606030;27;20039;-59
2022/11/30 09:49:42;;;;;;;1.25;0.80;;;;;;;;;;4611248;27;20125;-61
2022/11/30 09:51:53;;;;;;;0.88;0.75;;;;;;;;;;4551875;28;20262;-62
2022/11/30 09:54:08;;;;;;;0.82;0.70;;;;;;;;;;4554401;28;20136;-61
2022/11/30 09:56:28;;;;;;;1.25;0.80;;;;;;;;;;4552039;27;20061;-61
2022/11/30 09:58:43;;;;;;;1.70;0.93;;;;;;;;;;4607371;27;20155;-61
2022/11/30 10:00:54;;;;;;;1.65;1.10;;;;;;;;;;4612723;27;20023;-58
2022/11/30 10:03:04;;;;;;;1.52;0.93;;;;;;;;;;4604425;27;20035;-58
2022/11/30 10:05:16;;;;;;;2.90;0.85;;;;;;;;;;4605963;27;20031;-57
2022/11/30 10:07:33;;;;;;;0.90;0.88;;;;;;;;;;4611133;27;20072;-61
2022/11/30 10:09:43;;;;;;;3.00;0.80;;;;;;;;;;4606086;27;20069;-57
2022/11/30 10:15:32;;;;;;;3.92;1.90;;;;;;;;;;4615272;27;20195;-59
2022/11/30 10:17:42;;;;;;;4.07;2.20;;;;;;;;;;4633983;27;20035;-66
2022/11/30 10:19:56;;;;;;;7.50;4.10;;;;;;;;;;4631478;27;20076;-60
2022/11/30 10:22:16;;;;;;;4.20;2.53;;;;;;;;;;4640698;27;20039;-60
2022/11/30 10:24:29;;;;;;;4.18;2.10;;;;;;;;;;4631942;27;20054;-60
2022/11/30 10:26:44;;;;;;;4.20;1.63;;;;;;;;;;4633892;27;20103;-60
2022/11/30 10:28:57;;;;;;;2.08;1.27;;;;;;;;;;4631831;27;20061;-60
2022/11/30 10:31:11;;;;;;;2.83;2.17;;;;;;;;;;4631813;27;20074;-60
2022/11/30 10:33:24;;;;;;;2.65;2.10;;;;;;;;;;4632595;27;20137;-60
2022/11/30 10:35:39;;;;;;;2.70;2.20;;;;;;;;;;4632597;27;20037;-60
2022/11/30 10:37:50;;;;;;;2.88;2.10;;;;;;;;;;4631214;27;20605;-60
2022/11/30 10:40:04;;;;;;;2.95;2.00;;;;;;;;;;4631948;27;20042;-60
2022/11/30 10:42:14;;;;;;;2.30;1.90;;;;;;;;;;4632905;27;20043;-60
2022/11/30 10:44:27;;;;;;;2.55;2.08;;;;;;;;;;4632139;27;20402;-60
2022/11/30 10:46:39;;;;;;;2.70;2.10;;;;;;;;;;4633609;27;20656;-60
2022/11/30 10:48:58;;;;;;;2.95;2.30;;;;;;;;;;4632240;27;20039;-60
2022/11/30 10:51:09;;;;;;;2.83;2.45;;;;;;;;;;4634048;27;20143;-60
2022/11/30 10:53:20;;;;;;;2.67;2.17;;;;;;;;;;4632978;27;20038;-60
2022/11/30 10:55:34;;;;;;;3.25;2.50;;;;;;;;;;4632051;27;20038;-62
2022/11/30 10:57:45;;;;;;;2.90;2.30;;;;;;;;;;4633975;27;20027;-60
2022/11/30 10:59:57;;;;;;;2.63;2.20;;;;;;;;;;4632562;27;20651;-60
2022/11/30 11:02:27;;;;;;;2.33;1.88;;;;;;;;;;4634459;27;20039;-60
2022/11/30 11:04:37;;;;;;;2.17;1.90;;;;;;;;;;4633961;27;20039;-60
2022/11/30 11:06:51;;;;;;;2.33;2.08;;;;;;;;;;4632859;27;20042;-59
2022/11/30 11:09:20;;;;;;;2.67;2.08;;;;;;;;;;4632124;27;20043;-60
2022/11/30 11:11:33;;;;;;;2.70;2.10;;;;;;;;;;4631800;27;20053;-60
2022/11/30 11:13:44;;;;;;;2.47;2.08;;;;;;;;;;4631448;27;20086;-61
2022/11/30 11:15:55;;;;;;;2.70;2.20;;;;;;;;;;4615791;27;20571;-60
2022/11/30 11:18:15;;;;;;;2.53;2.15;;;;;;;;;;4632786;27;20065;-60
2022/11/30 11:20:25;;;;;;;3.03;2.13;;;;;;;;;;4630528;27;20117;-59
2022/11/30 11:22:36;;;;;;;2.60;2.20;;;;;;;;;;4630574;27;20041;-60
2022/11/30 11:24:47;;;;;;;3.30;2.42;;;;;;;;;;4629854;27;20417;-60
2022/11/30 11:26:57;;;;;;;3.08;2.40;;;;;;;;;;4619164;27;21077;-60
2022/11/30 11:29:30;;;;;;;3.05;2.20;;;;;;;;;;4619977;27;20104;-59
2022/11/30 11:31:43;;;;;;;3.17;2.20;;;;;;;;;;4628525;27;20038;-59
2022/11/30 11:33:53;;;;;;;3.28;2.55;;;;;;;;;;4619728;27;20082;-60
2022/11/30 11:36:06;;;;;;;2.67;2.20;;;;;;;;;;4619036;27;20042;-60
2022/11/30 11:38:18;;;;;;;3.25;2.42;;;;;;;;;;4620084;27;20577;-60
2022/11/30 11:40:28;;;;;;;3.30;2.50;;;;;;;;;;4620524;27;20042;-59
2022/11/30 11:42:44;;;;;;;2.92;2.45;;;;;;;;;;4619005;27;20483;-60
2022/11/30 11:44:56;;;;;;;2.73;2.30;;;;;;;;;;4619327;27;20548;-60
2022/11/30 11:47:07;;;;;;;3.30;2.38;;;;;;;;;;4621752;27;20294;-62
2022/11/30 11:49:21;;;;;;;2.70;2.10;;;;;;;;;;4601989;27;20774;-60
2022/11/30 11:51:32;;;;;;;2.92;2.20;;;;;;;;;;4630886;22;20656;-60
2022/11/30 11:53:44;;;;;;;2.80;2.10;;;;;;;;;;4562781;28;20590;-60
2022/11/30 11:55:55;;;;;;;2.92;2.40;;;;;;;;;;4564177;28;20044;-59
2022/11/30 11:58:05;;;;;;;2.60;2.30;;;;;;;;;;4562908;28;20099;-61
2022/11/30 12:00:19;;;;;;;2.78;2.20;;;;;;;;;;4563731;28;20043;-60
2022/11/30 12:02:38;;;;;;;2.85;2.13;;;;;;;;;;4563163;28;20044;-61
2022/11/30 12:04:55;;;;;;;2.45;1.98;;;;;;;;;;4563899;28;20927;-57
2022/11/30 12:07:15;;;;;;;2.30;2.00;;;;;;;;;;4563695;28;20140;-57
2022/11/30 12:09:36;;;;;;;2.38;1.67;;;;;;;;;;4561195;28;20041;-56
2022/11/30 12:11:47;;;;;;;2.75;2.08;;;;;;;;;;4554256;28;20025;-56
2022/11/30 12:13:57;;;;;;;2.33;2.00;;;;;;;;;;4563011;28;20045;-56
2022/11/30 12:16:13;;;;;;;2.10;1.80;;;;;;;;;;4554531;28;20086;-56
2022/11/30 12:18:29;;;;;;;1.90;1.70;;;;;;;;;;4563256;28;20548;-56
2022/11/30 12:20:48;;;;;;;2.20;1.70;;;;;;;;;;4547510;28;20094;-56
2022/11/30 12:23:09;;;;;;;2.30;2.00;;;;;;;;;;4563155;28;20108;-56
2022/11/30 12:25:23;;;;;;;2.38;2.00;;;;;;;;;;4564484;28;20089;-56
2022/11/30 12:27:45;;;;;;;2.33;1.90;;;;;;;;;;4562631;28;20119;-56
2022/11/30 12:30:08;;;;;;;2.42;1.95;;;;;;;;;;4561189;28;20059;-56
2022/11/30 12:32:18;;;;;;;2.13;1.70;;;;;;;;;;4563291;28;20040;-56
2022/11/30 12:34:36;;;;;;;2.30;1.80;;;;;;;;;;4564511;28;20055;-56
2022/11/30 12:37:12;;;;;;;2.47;1.80;;;;;;;;;;4562571;27;20894;-56
2022/11/30 12:39:52;;;;;;;2.22;1.70;;;;;;;;;;4562655;28;20040;-56
2022/11/30 12:42:20;;;;;;;1.98;1.70;;;;;;;;;;4526468;28;20056;-56
2022/11/30 12:44:33;;;;;;;2.13;1.60;;;;;;;;;;4562901;28;20402;-56
2022/11/30 12:46:49;;;;;;;2.50;1.90;;;;;;;;;;4562701;28;20043;-56
2022/11/30 12:49:05;;;;;;;2.10;1.83;;;;;;;;;;4547675;28;20221;-56
2022/11/30 12:51:24;;;;;;;2.10;1.80;;;;;;;;;;4562260;28;20177;-56
2022/11/30 12:53:35;;;;;;;2.30;1.80;;;;;;;;;;4562252;28;20043;-56
2022/11/30 12:55:45;;;;;;;2.15;1.83;;;;;;;;;;4562220;28;20043;-57
2022/11/30 12:58:04;;;;;;;2.33;1.88;;;;;;;;;;4563518;28;20074;-56
2022/11/30 13:00:24;;;;;;;2.17;1.80;;;;;;;;;;4562052;28;20115;-56
2022/11/30 13:02:46;;;;;;;1.95;1.73;;;;;;;;;;4562807;28;20074;-56
2022/11/30 13:05:02;;;;;;;1.92;1.67;;;;;;;;;;4561117;28;20043;-56
2022/11/30 13:07:33;;;;;;;2.72;1.80;;;;;;;;;;4562595;28;20611;-56
2022/11/30 13:09:48;;;;;;;1.92;1.73;;;;;;;;;;4562178;28;20563;-56
2022/11/30 13:12:02;;;;;;;2.10;1.90;;;;;;;;;;4562188;28;20665;-57
2022/11/30 13:14:19;;;;;;;2.58;2.17;;;;;;;;;;4562115;28;20090;-56
2022/11/30 13:16:31;;;;;;;2.10;1.80;;;;;;;;;;4563206;28;20040;-56
2022/11/30 13:18:42;;;;;;;2.00;1.80;;;;;;;;;;4563496;28;20032;-56